Time;durP1;ratioP1;P1;durP2;ratioP2;P2;SDS_P1;SDS_P2;PMS_P1;PMS_P2;Temp;Humidity;BMP_temperature;BMP_pressure;BME280_temperature;BME280_humidity;BME280_pressure;Samples;Min_cycle;Max_cycle;Signal;HPM_P1;HPM_P2
2023/09/05 00:01:40;;;;;;;1.60;1.60;;;;;;;18.90;80.78;97030.50;5002054;28;20060;-66
2023/09/05 00:04:06;;;;;;;1.60;1.60;;;;;;;18.95;79.92;97029.97;5003513;28;20057;-67
2023/09/05 00:06:35;;;;;;;1.65;1.65;;;;;;;18.62;79.46;96991.63;5005080;28;20152;-65
2023/09/05 00:09:02;;;;;;;1.80;1.80;;;;;;;18.65;78.65;96984.38;5002906;28;20625;-65
2023/09/05 00:11:29;;;;;;;1.90;1.90;;;;;;;18.76;78.14;97002.63;5003349;28;20049;-65
2023/09/05 00:13:55;;;;;;;1.60;1.60;;;;;;;19.06;77.63;97022.19;5005028;28;20076;-67
2023/09/05 00:16:22;;;;;;;1.70;1.70;;;;;;;18.94;78.25;97028.41;5004584;28;20074;-65
2023/09/05 00:18:49;;;;;;;1.85;1.85;;;;;;;19.03;77.01;97023.03;5003365;28;20065;-65
2023/09/05 00:21:18;;;;;;;1.80;1.80;;;;;;;18.91;77.54;97020.84;5004836;28;20045;-66
2023/09/05 00:23:45;;;;;;;1.92;1.92;;;;;;;18.96;77.59;97017.56;5004712;28;20050;-65
2023/09/05 00:26:12;;;;;;;1.65;1.65;;;;;;;18.98;77.99;97023.53;5004472;28;20045;-65
2023/09/05 00:28:41;;;;;;;1.65;1.65;;;;;;;18.95;78.51;97038.41;5004167;28;20050;-65
2023/09/05 00:31:08;;;;;;;1.83;1.83;;;;;;;18.93;78.45;97018.41;5002769;28;20056;-65
2023/09/05 00:33:34;;;;;;;1.70;1.70;;;;;;;18.92;78.79;96994.34;5004367;28;20057;-66
2023/09/05 00:36:03;;;;;;;1.63;1.63;;;;;;;18.96;79.22;97009.13;5004729;28;20069;-65
2023/09/05 00:38:32;;;;;;;1.52;1.52;;;;;;;18.93;79.60;97009.97;5005048;28;20789;-65
2023/09/05 00:41:00;;;;;;;1.75;1.75;;;;;;;18.93;80.09;97015.59;5004187;28;20050;-65
2023/09/05 00:43:26;;;;;;;1.63;1.63;;;;;;;18.74;81.57;96999.47;5003923;28;20233;-65
2023/09/05 00:45:55;;;;;;;1.85;1.85;;;;;;;18.78;81.01;96988.19;5003973;28;20054;-65
2023/09/05 00:48:27;;;;;;;1.40;1.40;;;;;;;18.59;81.02;96963.63;5002506;28;20046;-65
2023/09/05 00:50:57;;;;;;;1.65;1.65;;;;;;;18.31;81.27;96936.78;5002158;28;20093;-65
2023/09/05 00:53:25;;;;;;;1.50;1.50;;;;;;;18.67;81.02;96976.34;5004059;28;20108;-67
2023/09/05 00:55:53;;;;;;;1.73;1.73;;;;;;;18.43;80.84;96944.63;5002341;28;20073;-66
2023/09/05 00:58:20;;;;;;;1.70;1.70;;;;;;;18.74;80.25;96973.41;5003721;28;20061;-65
2023/09/05 01:00:47;;;;;;;1.60;1.60;;;;;;;18.84;80.58;96962.00;5002471;28;20149;-65
2023/09/05 01:03:13;;;;;;;1.40;1.40;;;;;;;18.95;80.35;96967.44;5003345;28;20050;-65
2023/09/05 01:05:46;;;;;;;1.50;1.50;;;;;;;18.92;80.89;96957.84;5002735;28;20133;-65
2023/09/05 01:08:21;;;;;;;1.67;1.67;;;;;;;18.75;81.05;96927.28;5003152;28;20440;-67
2023/09/05 01:10:58;;;;;;;1.58;1.58;;;;;;;19.07;81.87;96981.66;5002859;28;20086;-65
2023/09/05 01:13:26;;;;;;;1.60;1.60;;;;;;;19.11;81.80;96979.56;5002929;28;20444;-65
2023/09/05 01:15:54;;;;;;;1.50;1.50;;;;;;;19.05;82.15;96972.06;5003133;28;20065;-66
2023/09/05 01:18:21;;;;;;;1.70;1.70;;;;;;;19.08;82.42;96974.03;5001755;28;20050;-65
2023/09/05 01:21:00;;;;;;;1.63;1.63;;;;;;;19.12;82.28;96975.56;5002884;28;20511;-65
2023/09/05 01:23:32;;;;;;;1.70;1.70;;;;;;;18.72;82.25;96912.09;5002789;28;20054;-65
2023/09/05 01:26:00;;;;;;;1.60;1.60;;;;;;;19.17;82.58;96994.72;5002188;28;20054;-66
2023/09/05 01:28:28;;;;;;;1.80;1.80;;;;;;;19.11;82.79;96973.97;5001311;28;20053;-65
2023/09/05 01:30:54;;;;;;;1.70;1.70;;;;;;;19.09;83.04;96987.66;5002211;28;20531;-65
2023/09/05 01:33:21;;;;;;;1.88;1.88;;;;;;;19.09;83.21;96987.66;5000910;28;20045;-65
2023/09/05 01:35:48;;;;;;;1.52;1.52;;;;;;;19.13;83.81;96994.00;5002305;28;20469;-65
2023/09/05 01:38:15;;;;;;;1.80;1.80;;;;;;;19.13;83.23;96985.56;5001164;28;20060;-66
2023/09/05 01:40:41;;;;;;;1.67;1.67;;;;;;;19.25;83.51;96981.38;5000551;28;20052;-65
2023/09/05 01:43:08;;;;;;;1.80;1.80;;;;;;;19.16;82.93;96967.88;5001599;28;20049;-66
2023/09/05 01:45:35;;;;;;;1.58;1.58;;;;;;;19.26;82.55;96985.75;5001504;28;20065;-65
2023/09/05 01:48:02;;;;;;;1.60;1.60;;;;;;;19.37;83.13;96992.81;5001892;28;20053;-66
2023/09/05 01:50:33;;;;;;;1.63;1.63;;;;;;;19.38;82.76;96994.38;5001716;28;20054;-65
2023/09/05 01:52:59;;;;;;;1.70;1.70;;;;;;;19.44;82.80;96987.03;5001885;28;20042;-66
2023/09/05 01:55:26;;;;;;;1.60;1.60;;;;;;;19.51;82.67;96998.16;4999841;28;20149;-66
2023/09/05 01:57:52;;;;;;;1.75;1.75;;;;;;;19.32;82.30;96968.00;5000891;28;20053;-66
2023/09/05 02:00:19;;;;;;;1.90;1.90;;;;;;;19.61;82.25;96995.56;5001713;28;20509;-66
2023/09/05 02:02:46;;;;;;;1.95;1.95;;;;;;;19.31;81.88;96943.16;5002265;28;20053;-65
2023/09/05 02:05:13;;;;;;;1.83;1.83;;;;;;;19.71;80.94;96994.56;5000378;28;20230;-65
2023/09/05 02:07:39;;;;;;;1.90;1.90;;;;;;;19.82;80.62;97006.41;5002158;28;20069;-65
2023/09/05 02:10:07;;;;;;;2.00;2.00;;;;;;;19.48;81.25;96942.81;4999918;28;20060;-65
2023/09/05 02:12:35;;;;;;;1.88;1.88;;;;;;;19.84;80.05;96992.72;5002099;28;20046;-65
2023/09/05 02:15:02;;;;;;;1.95;1.95;;;;;;;19.46;80.18;96934.03;5000482;28;20049;-65
2023/09/05 02:17:34;;;;;;;1.60;1.60;;;;;;;19.88;79.87;96999.84;5003068;28;20565;-65
2023/09/05 02:20:01;;;;;;;1.67;1.67;;;;;;;19.58;79.73;96932.59;5002765;28;20392;-65
2023/09/05 02:22:27;;;;;;;1.88;1.88;;;;;;;20.00;79.04;97001.19;5002836;28;20229;-65
2023/09/05 02:24:54;;;;;;;1.92;1.92;;;;;;;19.80;79.19;96969.50;5001892;28;20046;-65
2023/09/05 02:27:21;;;;;;;2.05;2.05;;;;;;;20.00;79.22;97001.19;5002348;28;20042;-65
2023/09/05 02:29:49;;;;;;;1.80;1.80;;;;;;;20.03;78.50;97003.16;5002259;28;20049;-65
2023/09/05 02:32:18;;;;;;;1.80;1.80;;;;;;;19.95;78.78;97010.94;5000976;28;20497;-65
2023/09/05 02:34:50;;;;;;;1.73;1.73;;;;;;;19.87;78.98;97005.91;5002317;28;20396;-65
2023/09/05 02:37:17;;;;;;;2.20;2.20;;;;;;;19.76;79.75;97013.75;5002315;28;20054;-65
2023/09/05 02:39:44;;;;;;;2.05;2.05;;;;;;;19.73;80.05;97014.63;5001236;28;20049;-65
2023/09/05 02:42:10;;;;;;;1.90;1.90;;;;;;;19.40;79.64;96979.91;5003280;28;20057;-65
2023/09/05 02:44:37;;;;;;;1.80;1.80;;;;;;;19.66;80.67;97021.16;5002238;28;20572;-65
2023/09/05 02:47:04;;;;;;;1.70;1.70;;;;;;;19.44;80.60;96998.28;5002704;28;20441;-65
2023/09/05 02:49:31;;;;;;;1.70;1.70;;;;;;;19.11;81.67;96971.16;5002477;28;20073;-66
2023/09/05 02:51:58;;;;;;;1.80;1.80;;;;;;;19.35;81.80;97011.28;5002396;28;20049;-65
2023/09/05 02:54:27;;;;;;;1.58;1.58;;;;;;;19.08;82.22;96983.25;5001113;28;20410;-67
2023/09/05 02:56:55;;;;;;;1.70;1.70;;;;;;;19.28;82.58;97009.41;5002341;28;20132;-65
2023/09/05 02:59:22;;;;;;;1.90;1.90;;;;;;;19.29;82.78;97019.44;5002165;28;20779;-65
2023/09/05 03:01:49;;;;;;;1.70;1.70;;;;;;;19.22;83.24;97015.94;5002303;28;20532;-65
2023/09/05 03:04:16;;;;;;;2.00;2.00;;;;;;;18.79;85.45;97013.03;5002206;28;20054;-65
2023/09/05 03:06:42;;;;;;;1.60;1.60;;;;;;;18.32;85.01;96909.53;5002260;28;20056;-65
2023/09/05 03:09:09;;;;;;;1.83;1.83;;;;;;;18.85;85.17;97008.50;5001708;28;20532;-65
2023/09/05 03:11:36;;;;;;;1.70;1.70;;;;;;;18.75;85.76;96998.22;5001896;28;20579;-65
2023/09/05 03:14:02;;;;;;;1.80;1.80;;;;;;;18.68;86.00;97000.38;5001997;28;20584;-65
2023/09/05 03:16:29;;;;;;;1.63;1.63;;;;;;;18.69;86.49;96997.13;5000484;28;20050;-65
2023/09/05 03:18:59;;;;;;;1.90;1.90;;;;;;;18.57;86.55;96992.13;5001969;28;20049;-65
2023/09/05 03:21:26;;;;;;;1.80;1.80;;;;;;;18.33;86.13;96931.53;5002139;28;20057;-65
2023/09/05 03:23:53;;;;;;;1.70;1.70;;;;;;;17.97;85.82;96877.22;5002043;28;20136;-65
2023/09/05 03:26:20;;;;;;;1.95;1.95;;;;;;;18.66;86.79;97002.78;5000679;28;20141;-65
2023/09/05 03:28:47;;;;;;;1.48;1.48;;;;;;;18.70;86.89;97009.94;5002022;28;20509;-65
2023/09/05 03:31:14;;;;;;;1.77;1.77;;;;;;;18.56;86.40;96976.47;5000934;28;20133;-66
2023/09/05 03:33:41;;;;;;;1.70;1.70;;;;;;;18.73;87.25;97009.09;5001468;28;20076;-65
2023/09/05 03:36:09;;;;;;;1.63;1.63;;;;;;;18.75;87.13;97023.50;5001096;28;20854;-65
2023/09/05 03:38:36;;;;;;;1.70;1.70;;;;;;;18.75;87.00;97022.69;5004493;28;20478;-65
2023/09/05 03:41:03;;;;;;;1.80;1.80;;;;;;;18.57;88.18;97022.97;4999747;28;20433;-65
2023/09/05 03:43:29;;;;;;;1.77;1.77;;;;;;;16.94;87.61;96766.94;4984814;28;20062;-65
2023/09/05 03:45:56;;;;;;;1.83;1.83;;;;;;;18.39;86.84;96971.94;4999584;28;20081;-64
2023/09/05 03:48:23;;;;;;;1.90;1.90;;;;;;;18.64;86.96;97000.41;4985063;28;20058;-64
2023/09/05 03:50:49;;;;;;;1.80;1.80;;;;;;;18.32;87.19;97014.06;4985552;28;20058;-65
2023/09/05 03:53:16;;;;;;;1.73;1.73;;;;;;;18.77;87.12;97062.34;5000265;28;20057;-64
2023/09/05 03:55:44;;;;;;;1.60;1.60;;;;;;;18.89;85.52;97056.97;4999691;28;20404;-64
2023/09/05 03:58:11;;;;;;;1.70;1.70;;;;;;;19.12;84.50;97054.19;4984525;28;20305;-64
2023/09/05 04:00:38;;;;;;;1.90;1.90;;;;;;;19.18;83.23;97046.88;4985667;28;20062;-65
2023/09/05 04:03:05;;;;;;;1.88;1.88;;;;;;;19.22;82.86;97049.63;4985678;28;20054;-64
2023/09/05 04:05:35;;;;;;;1.70;1.70;;;;;;;19.36;81.50;97041.75;4986158;28;20054;-64
2023/09/05 04:08:02;;;;;;;1.70;1.70;;;;;;;19.40;81.13;97036.09;4986522;28;20062;-64
2023/09/05 04:10:28;;;;;;;1.75;1.75;;;;;;;19.21;80.66;97001.06;4985862;28;20054;-64
2023/09/05 04:12:56;;;;;;;1.73;1.73;;;;;;;19.30;80.63;96987.28;5001248;28;20789;-64
2023/09/05 04:15:23;;;;;;;1.80;1.80;;;;;;;19.52;79.72;97005.34;4984156;28;20054;-64
2023/09/05 04:17:52;;;;;;;1.73;1.73;;;;;;;19.63;79.41;97021.22;4985083;28;20050;-65
2023/09/05 04:20:19;;;;;;;1.80;1.80;;;;;;;19.48;79.60;96982.16;4984083;28;20141;-64
2023/09/05 04:22:46;;;;;;;2.05;2.05;;;;;;;19.95;79.09;97030.63;4984681;28;20249;-65
2023/09/05 04:25:14;;;;;;;2.08;2.08;;;;;;;19.58;80.34;96990.81;4984766;28;20046;-64
2023/09/05 04:27:41;;;;;;;1.90;1.90;;;;;;;19.76;82.34;97008.13;4985531;28;20065;-65
2023/09/05 04:30:09;;;;;;;2.00;2.00;;;;;;;19.61;82.84;97004.00;4985515;28;20077;-64
2023/09/05 04:32:37;;;;;;;1.80;1.80;;;;;;;19.57;82.20;97000.47;4985466;28;20050;-64
2023/09/05 04:35:05;;;;;;;1.70;1.70;;;;;;;19.66;82.37;97020.38;5000961;28;20443;-65
2023/09/05 04:37:32;;;;;;;2.10;2.10;;;;;;;19.79;83.61;97041.00;5004410;28;20085;-65
2023/09/05 04:40:00;;;;;;;1.73;1.73;;;;;;;19.36;83.72;96974.34;5003781;28;20088;-65
2023/09/05 04:42:27;;;;;;;1.70;1.70;;;;;;;19.36;83.45;96985.56;5003620;28;20080;-65
2023/09/05 04:44:54;;;;;;;1.73;1.73;;;;;;;19.47;85.41;97036.75;5004734;28;20456;-65
2023/09/05 04:47:25;;;;;;;2.10;2.10;;;;;;;19.41;86.79;97060.94;5002640;28;20054;-65
2023/09/05 04:49:55;;;;;;;1.92;1.92;;;;;;;19.38;87.53;97033.72;5004617;28;20050;-65
2023/09/05 04:52:23;;;;;;;1.55;1.55;;;;;;;19.61;88.11;97040.53;5005338;28;20062;-66
2023/09/05 04:54:50;;;;;;;1.85;1.85;;;;;;;19.66;88.48;97037.22;5003655;28;20086;-65
2023/09/05 04:57:17;;;;;;;1.80;1.80;;;;;;;19.67;84.92;97027.56;5004930;28;20085;-65
2023/09/05 04:59:45;;;;;;;1.73;1.73;;;;;;;19.57;86.66;97034.19;5004721;28;20069;-65
2023/09/05 05:02:11;;;;;;;1.85;1.85;;;;;;;19.86;85.39;97040.84;5003117;28;20187;-65
2023/09/05 05:04:38;;;;;;;1.75;1.75;;;;;;;19.90;83.28;97030.34;5004364;28;20548;-65
2023/09/05 05:07:05;;;;;;;1.90;1.90;;;;;;;19.92;83.11;97027.88;5001906;28;20064;-66
2023/09/05 05:09:32;;;;;;;1.85;1.85;;;;;;;18.42;81.55;96773.94;5003818;28;20600;-65
2023/09/05 05:11:59;;;;;;;1.95;1.95;;;;;;;19.80;81.79;97036.97;5002927;28;20062;-64
2023/09/05 05:14:26;;;;;;;1.83;1.83;;;;;;;19.78;82.30;97045.03;5003759;28;20129;-65
2023/09/05 05:16:53;;;;;;;1.90;1.90;;;;;;;19.54;82.89;97031.00;5004043;28;20061;-65
2023/09/05 05:19:21;;;;;;;1.60;1.60;;;;;;;19.51;83.52;97057.16;5003742;28;20050;-65
2023/09/05 05:21:48;;;;;;;1.60;1.60;;;;;;;19.58;83.85;97047.00;5004037;28;20049;-65
2023/09/05 05:24:15;;;;;;;1.73;1.73;;;;;;;19.63;83.52;97043.72;5003136;28;20046;-64
2023/09/05 05:26:43;;;;;;;1.58;1.58;;;;;;;19.61;83.40;97032.09;5002109;28;20057;-64
2023/09/05 05:29:09;;;;;;;1.73;1.73;;;;;;;19.73;82.89;97042.72;5002334;28;20046;-64
2023/09/05 05:31:37;;;;;;;1.98;1.98;;;;;;;19.87;82.23;97036.84;5002713;28;20433;-65
2023/09/05 05:34:04;;;;;;;1.77;1.77;;;;;;;19.72;80.86;96996.94;5002485;28;20543;-64
2023/09/05 05:36:31;;;;;;;1.83;1.83;;;;;;;19.47;80.86;96924.34;5000771;28;20042;-65
2023/09/05 05:38:59;;;;;;;1.90;1.90;;;;;;;20.09;79.80;97015.50;5000910;28;20457;-65
2023/09/05 05:41:29;;;;;;;1.80;1.80;;;;;;;20.23;79.00;97020.84;5002895;28;20050;-65
2023/09/05 05:43:56;;;;;;;1.88;1.88;;;;;;;20.01;79.43;97014.06;5002821;28;20060;-64
2023/09/05 05:46:22;;;;;;;1.70;1.70;;;;;;;20.16;79.33;97024.59;5002993;28;20045;-64
2023/09/05 05:48:49;;;;;;;1.92;1.92;;;;;;;20.25;79.09;97029.66;5001269;28;20050;-64
2023/09/05 05:51:16;;;;;;;1.70;1.70;;;;;;;20.06;79.04;97011.50;5000854;28;20139;-64
2023/09/05 05:53:42;;;;;;;1.63;1.63;;;;;;;20.10;78.90;97020.69;5002302;28;20480;-65
2023/09/05 05:56:13;;;;;;;1.80;1.80;;;;;;;20.19;79.12;97025.75;5001795;28;20177;-64
2023/09/05 05:58:41;;;;;;;2.05;2.05;;;;;;;20.26;78.38;97017.16;5000163;28;20064;-64
2023/09/05 06:01:10;;;;;;;1.90;1.90;;;;;;;19.91;78.48;96978.50;5001902;28;20137;-64
2023/09/05 06:03:36;;;;;;;1.75;1.75;;;;;;;20.30;77.95;97009.44;5001447;28;20136;-65
2023/09/05 06:06:03;;;;;;;1.80;1.80;;;;;;;20.44;76.56;97020.38;5002714;28;20164;-65
2023/09/05 06:08:30;;;;;;;1.95;1.95;;;;;;;20.60;75.85;97023.22;5001614;28;20050;-66
2023/09/05 06:10:57;;;;;;;1.80;1.80;;;;;;;20.60;75.96;97017.59;5000151;28;20049;-65
2023/09/05 06:13:24;;;;;;;2.30;2.30;;;;;;;20.74;74.59;97011.63;4983157;28;20108;-68
2023/09/05 06:15:52;;;;;;;1.70;1.70;;;;;;;20.77;73.72;97005.94;4992990;28;20584;-62
2023/09/05 06:18:19;;;;;;;2.13;2.13;;;;;;;20.81;73.32;96997.41;4997895;28;20062;-60
2023/09/05 06:20:46;;;;;;;1.85;1.85;;;;;;;20.86;73.23;96996.88;4989397;28;20046;-68
2023/09/05 06:23:13;;;;;;;2.60;2.50;;;;;;;18.63;73.14;96740.69;4982369;28;20233;-68
2023/09/05 06:25:39;;;;;;;2.08;2.08;;;;;;;19.65;73.59;96844.53;4992511;28;20048;-60
2023/09/05 06:28:06;;;;;;;2.33;2.30;;;;;;;20.29;73.18;96940.34;4986803;28;20053;-60
2023/09/05 06:30:33;;;;;;;2.10;2.10;;;;;;;20.72;72.58;97008.50;4992408;28;20723;-69
2023/09/05 06:33:00;;;;;;;1.88;1.88;;;;;;;20.22;72.63;96948.91;4990965;28;20054;-66
2023/09/05 06:35:26;;;;;;;1.92;1.92;;;;;;;20.69;73.32;97049.56;4991356;28;20103;-61
2023/09/05 06:37:56;;;;;;;1.90;1.90;;;;;;;20.90;74.29;97110.22;4984470;28;20062;-67
2023/09/05 06:40:23;;;;;;;2.00;2.00;;;;;;;20.45;73.87;97028.41;4996766;28;20085;-69
2023/09/05 06:42:51;;;;;;;2.00;2.00;;;;;;;20.96;73.91;97123.41;4999848;28;20046;-65
2023/09/05 06:45:19;;;;;;;1.90;1.90;;;;;;;20.73;74.71;97108.59;4996301;28;20148;-66
2023/09/05 06:47:46;;;;;;;1.90;1.90;;;;;;;20.91;74.38;97140.00;4998121;28;20042;-70
2023/09/05 06:50:13;;;;;;;2.10;2.10;;;;;;;20.88;74.37;97129.63;4991381;28;20053;-69
2023/09/05 06:52:39;;;;;;;1.80;1.80;;;;;;;20.99;73.99;97164.00;4994104;28;20137;-67
2023/09/05 06:55:06;;;;;;;2.00;2.00;;;;;;;20.87;73.82;97134.44;4997092;28;20548;-69
2023/09/05 06:57:33;;;;;;;2.00;2.00;;;;;;;21.12;73.15;97133.13;4988954;28;20081;-67
2023/09/05 07:00:00;;;;;;;1.90;1.90;;;;;;;21.17;72.88;97147.47;4987705;28;20042;-61
2023/09/05 07:02:26;;;;;;;2.10;2.10;;;;;;;20.23;73.13;97010.38;5001418;28;20136;-62
2023/09/05 07:04:53;;;;;;;2.55;2.45;;;;;;;20.98;73.26;97168.81;4994933;28;20064;-61
2023/09/05 07:07:20;;;;;;;2.10;2.10;;;;;;;19.56;73.43;96926.59;4982659;28;20062;-62
2023/09/05 07:09:47;;;;;;;2.20;2.20;;;;;;;20.59;72.82;97061.06;4987562;28;20050;-63
2023/09/05 07:12:14;;;;;;;2.20;2.20;;;;;;;21.33;72.69;97186.97;5004509;28;20064;-63
2023/09/05 07:14:41;;;;;;;2.00;2.00;;;;;;;20.98;73.52;97166.00;4996757;28;20324;-64
2023/09/05 07:17:10;;;;;;;2.22;2.22;;;;;;;21.32;72.88;97154.38;5002396;28;20171;-72
2023/09/05 07:19:37;;;;;;;2.00;2.00;;;;;;;21.25;72.39;97160.16;4996512;28;20517;-68
2023/09/05 07:22:04;;;;;;;2.17;2.17;;;;;;;21.29;71.90;97127.09;5003452;28;20065;-63
2023/09/05 07:24:32;;;;;;;2.08;2.08;;;;;;;21.85;70.49;97170.81;5000753;28;20049;-60
2023/09/05 07:26:59;;;;;;;2.10;2.10;;;;;;;21.56;69.77;97107.88;4989467;28;20046;-70
2023/09/05 07:29:26;;;;;;;2.20;2.20;;;;;;;22.12;68.89;97145.94;4987928;28;20659;-63
2023/09/05 07:31:53;;;;;;;2.67;2.58;;;;;;;21.95;67.53;97056.94;5002815;28;20069;-64
2023/09/05 07:34:19;;;;;;;2.53;2.42;;;;;;;22.09;68.04;97090.38;5003900;28;20441;-70
2023/09/05 07:36:46;;;;;;;2.15;2.15;;;;;;;22.56;67.20;97163.31;4996633;28;20076;-63
2023/09/05 07:39:13;;;;;;;2.50;2.40;;;;;;;22.93;66.92;97154.97;4986023;28;20161;-64
2023/09/05 07:41:40;;;;;;;2.83;2.72;;;;;;;22.26;65.92;97094.75;4994321;28;20290;-68
2023/09/05 07:44:07;;;;;;;2.47;2.38;;;;;;;21.77;67.33;97096.09;4985819;28;20056;-67
2023/09/05 07:46:33;;;;;;;2.47;2.38;;;;;;;22.12;67.77;97162.88;4989244;28;20061;-63
2023/09/05 07:49:01;;;;;;;2.20;2.20;;;;;;;21.69;67.86;97058.00;5003048;28;20056;-63
2023/09/05 07:51:29;;;;;;;2.35;2.30;;;;;;;21.65;66.91;97000.13;5002726;28;20429;-69
2023/09/05 07:54:10;;;;;;;2.28;2.28;;;;;;;21.32;66.61;97075.47;4998271;28;20377;-62
2023/09/05 07:56:37;;;;;;;2.60;2.50;;;;;;;22.45;65.45;97119.19;4995531;28;20061;-62
2023/09/05 07:59:05;;;;;;;2.53;2.42;;;;;;;22.53;63.93;97080.28;5016951;28;20132;-63
2023/09/05 08:01:33;;;;;;;2.58;2.47;;;;;;;22.63;64.13;97117.94;4993363;28;20054;-65
2023/09/05 08:04:00;;;;;;;2.30;2.28;;;;;;;22.40;61.73;97128.22;4998713;28;20061;-70
2023/09/05 08:06:28;;;;;;;2.58;2.47;;;;;;;22.32;63.14;97078.84;5019698;28;20061;-62
2023/09/05 08:08:55;;;;;;;2.30;2.30;;;;;;;22.73;62.11;97102.72;4989814;28;20494;-68
2023/09/05 08:11:22;;;;;;;2.70;2.60;;;;;;;23.10;60.77;97159.28;5002223;28;20133;-66
2023/09/05 08:13:48;;;;;;;2.38;2.30;;;;;;;23.25;61.18;97154.00;4985060;28;20051;-67
2023/09/05 08:16:15;;;;;;;2.63;2.53;;;;;;;22.97;59.71;97070.88;5001897;28;20049;-67
2023/09/05 08:18:42;;;;;;;2.58;2.47;;;;;;;23.14;60.29;97154.31;4992727;28;20437;-62
2023/09/05 08:21:09;;;;;;;2.58;2.47;;;;;;;23.17;59.18;97144.16;4997323;28;20081;-64
2023/09/05 08:23:35;;;;;;;2.40;2.35;;;;;;;22.95;58.35;97123.44;4995454;28;20052;-68
2023/09/05 08:26:02;;;;;;;2.25;2.25;;;;;;;22.52;57.94;97118.25;4998257;28;20536;-65
2023/09/05 08:28:32;;;;;;;2.65;2.55;;;;;;;22.50;58.54;97154.56;5002756;28;20042;-61
2023/09/05 08:31:00;;;;;;;2.47;2.38;;;;;;;22.48;59.47;97161.91;4988940;28;20098;-68
2023/09/05 08:33:30;;;;;;;2.50;2.40;;;;;;;22.93;59.42;97154.16;5008139;28;20053;-61
2023/09/05 08:35:57;;;;;;;2.47;2.38;;;;;;;22.34;57.61;97028.38;5023156;28;20463;-67
2023/09/05 08:38:23;;;;;;;2.70;2.60;;;;;;;23.33;58.00;97189.31;5023476;28;20324;-60
2023/09/05 08:40:53;;;;;;;2.67;2.58;;;;;;;23.66;57.97;97156.75;5023242;28;20061;-60
2023/09/05 08:43:20;;;;;;;2.33;2.33;;;;;;;23.27;56.55;97117.59;5023223;28;20053;-68
2023/09/05 08:45:49;;;;;;;2.60;2.50;;;;;;;22.70;58.34;97086.66;5022920;28;20055;-62
2023/09/05 08:48:15;;;;;;;2.60;2.50;;;;;;;22.94;58.77;97170.66;5027559;28;20041;-61
2023/09/05 08:50:42;;;;;;;2.60;2.50;;;;;;;22.07;60.64;97084.38;5032814;28;20508;-66
2023/09/05 08:53:10;;;;;;;2.22;2.22;;;;;;;21.92;61.82;97147.28;5013956;28;20053;-62
2023/09/05 08:55:41;;;;;;;2.30;2.30;;;;;;;22.01;61.03;97138.97;5022000;28;20151;-71
2023/09/05 08:58:14;;;;;;;2.10;2.10;;;;;;;21.89;62.34;97165.88;5017666;28;20152;-67
2023/09/05 09:00:42;;;;;;;2.00;2.00;;;;;;;20.64;63.15;97038.03;5019523;28;20044;-64
2023/09/05 09:03:08;;;;;;;1.90;1.90;;;;;;;21.39;63.05;97176.75;5020243;28;20084;-64
2023/09/05 09:05:36;;;;;;;2.15;2.15;;;;;;;21.39;64.46;97176.75;5021919;28;20132;-65
2023/09/05 09:08:04;;;;;;;1.98;1.98;;;;;;;21.33;64.47;97188.97;5020813;28;20132;-59
2023/09/05 09:10:30;;;;;;;2.25;2.25;;;;;;;21.28;64.06;97193.09;5019193;28;20143;-65
2023/09/05 09:13:14;;;;;;;1.80;1.80;;;;;;;20.94;65.09;97189.81;5019685;28;20049;-60
2023/09/05 09:15:43;;;;;;;1.98;1.98;;;;;;;20.75;66.26;97168.09;5033536;28;20053;-67
2023/09/05 09:18:12;;;;;;;2.00;2.00;;;;;;;20.92;66.59;97183.81;5020490;28;20111;-67
2023/09/05 09:20:51;;;;;;;2.15;2.15;;;;;;;20.99;66.53;97198.56;5018802;28;20358;-65
2023/09/05 09:23:26;;;;;;;2.10;2.10;;;;;;;20.93;65.94;97188.22;5022518;28;20057;-67
2023/09/05 09:25:57;;;;;;;1.90;1.90;;;;;;;21.10;66.14;97200.38;5022187;28;20045;-66
2023/09/05 09:28:29;;;;;;;2.20;2.20;;;;;;;21.04;65.55;97171.13;5020431;28;20170;-63
2023/09/05 09:31:01;;;;;;;2.17;2.17;;;;;;;21.34;64.91;97199.81;5021013;28;20061;-66
2023/09/05 09:33:29;;;;;;;1.98;1.98;;;;;;;21.35;64.93;97198.59;5021224;28;20053;-63
2023/09/05 09:36:07;;;;;;;2.13;2.13;;;;;;;21.02;64.00;97151.06;5021474;28;20047;-66
2023/09/05 09:38:34;;;;;;;1.95;1.95;;;;;;;21.33;62.05;97222.81;5021568;28;20451;-64
2023/09/05 09:41:03;;;;;;;1.90;1.90;;;;;;;21.36;63.07;97211.44;5019339;28;20140;-65
2023/09/05 09:43:31;;;;;;;2.00;2.00;;;;;;;20.60;64.11;97118.94;5021321;28;20905;-64
2023/09/05 09:46:00;;;;;;;2.00;2.00;;;;;;;21.72;61.16;97206.56;5019428;28;20061;-64
2023/09/05 09:48:28;;;;;;;2.13;2.13;;;;;;;21.58;61.82;97204.09;5021318;28;20055;-64
2023/09/05 09:50:56;;;;;;;2.20;2.20;;;;;;;21.90;60.39;97167.47;5019609;28;20061;-64
2023/09/05 09:53:34;;;;;;;2.65;2.55;;;;;;;22.01;59.98;97145.44;5021753;28;20057;-67
2023/09/05 09:56:10;;;;;;;2.53;2.42;;;;;;;21.76;61.26;97159.38;5021847;28;20582;-64
2023/09/05 09:58:42;;;;;;;2.28;2.28;;;;;;;22.30;59.05;97213.19;5021790;28;20081;-67
2023/09/05 10:01:13;;;;;;;2.50;2.40;;;;;;;22.45;60.24;97220.03;5021711;28;20081;-66
2023/09/05 10:03:44;;;;;;;2.50;2.40;;;;;;;22.96;59.08;97223.91;5022489;28;20292;-67
2023/09/05 10:06:11;;;;;;;2.63;2.53;;;;;;;23.15;58.97;97222.94;5020410;28;20504;-64
2023/09/05 10:08:38;;;;;;;2.55;2.45;;;;;;;23.20;58.31;97225.22;5022949;28;20128;-65
2023/09/05 10:11:14;;;;;;;2.63;2.53;;;;;;;22.26;58.89;97089.09;5022206;28;20539;-64
2023/09/05 10:13:42;;;;;;;2.65;2.55;;;;;;;23.07;57.74;97227.22;5021699;28;20323;-64
2023/09/05 10:16:09;;;;;;;2.40;2.35;;;;;;;23.10;57.99;97231.97;5021202;28;20140;-63
2023/09/05 10:18:40;;;;;;;2.67;2.58;;;;;;;22.27;58.95;97166.09;5019648;28;20482;-67
2023/09/05 10:21:08;;;;;;;2.47;2.38;;;;;;;22.18;58.53;97117.94;5020866;28;20136;-64
2023/09/05 10:23:37;;;;;;;2.28;2.28;;;;;;;23.11;58.60;97227.91;5020764;28;20609;-64
2023/09/05 10:26:05;;;;;;;2.50;2.40;;;;;;;22.84;58.86;97224.66;5020346;28;20064;-64
2023/09/05 10:28:32;;;;;;;2.55;2.45;;;;;;;22.26;60.19;97159.66;5022352;28;20262;-66
2023/09/05 10:31:12;;;;;;;2.30;2.30;;;;;;;22.43;60.04;97214.84;5022363;28;20487;-64
2023/09/05 10:33:46;;;;;;;2.70;2.60;;;;;;;22.76;60.65;97243.84;5020071;28;20080;-66
2023/09/05 10:36:42;;;;;;;2.22;2.20;;;;;;;22.36;61.13;97254.56;5021465;28;20087;-65
2023/09/05 10:39:18;;;;;;;2.35;2.30;;;;;;;22.62;61.72;97251.91;5021521;28;20049;-68
2023/09/05 10:41:44;;;;;;;2.20;2.20;;;;;;;22.59;61.27;97259.22;4999629;28;20062;-65
2023/09/05 10:44:11;;;;;;;2.30;2.30;;;;;;;22.48;60.35;97229.66;5001023;28;20045;-68
2023/09/05 10:46:39;;;;;;;2.67;2.58;;;;;;;22.49;61.70;97261.06;5019570;28;20061;-67
2023/09/05 10:49:11;;;;;;;2.50;2.40;;;;;;;22.31;62.52;97260.75;5021497;28;20677;-65
2023/09/05 10:52:17;;;;;;;2.53;2.42;;;;;;;22.64;60.67;97263.53;5021371;28;20053;-67
2023/09/05 10:54:44;;;;;;;2.55;2.45;;;;;;;22.63;61.57;97259.94;5021938;28;20048;-66
2023/09/05 10:57:36;;;;;;;2.50;2.40;;;;;;;23.20;59.58;97264.78;5021834;28;20137;-66
2023/09/05 11:00:11;;;;;;;2.72;2.63;;;;;;;23.27;58.38;97230.66;5021008;28;20508;-64
2023/09/05 11:02:40;;;;;;;2.45;2.38;;;;;;;23.60;57.34;97254.72;5022130;28;20100;-67
2023/09/05 11:05:27;;;;;;;2.60;2.50;;;;;;;23.33;56.33;97163.88;5021178;28;20131;-68
2023/09/05 11:07:58;;;;;;;2.85;2.75;;;;;;;23.59;56.21;97253.13;5021731;28;20412;-66
2023/09/05 11:10:27;;;;;;;2.85;2.75;;;;;;;23.89;56.64;97221.44;5019789;28;20050;-63
2023/09/05 11:12:53;;;;;;;2.67;2.58;;;;;;;24.12;54.81;97178.66;5020995;28;20452;-63
2023/09/05 11:15:43;;;;;;;2.78;2.67;;;;;;;24.20;55.79;97236.59;5020839;28;20539;-64
2023/09/05 11:18:14;;;;;;;2.80;2.70;;;;;;;24.15;55.53;97208.09;5019500;28;20042;-65
2023/09/05 11:20:42;;;;;;;3.13;3.03;;;;;;;25.00;53.33;97221.66;5016539;28;20049;-59
2023/09/05 11:23:21;;;;;;;2.90;2.80;;;;;;;24.65;54.04;97216.44;5019657;28;20060;-62
2023/09/05 11:25:50;;;;;;;2.88;2.78;;;;;;;24.25;53.41;97210.53;5004438;28;20064;-64
2023/09/05 11:28:17;;;;;;;2.83;2.72;;;;;;;24.03;54.23;97198.34;5030158;28;20076;-70
2023/09/05 11:30:46;;;;;;;3.05;2.95;;;;;;;24.80;54.48;97206.22;5020947;28;20107;-66
2023/09/05 11:33:15;;;;;;;3.10;3.00;;;;;;;25.00;52.54;97215.97;5021007;28;20060;-64
2023/09/05 11:35:43;;;;;;;3.00;2.90;;;;;;;24.42;52.34;97078.84;5022086;28;20049;-71
2023/09/05 11:38:10;;;;;;;3.00;2.90;;;;;;;25.12;51.19;97212.28;5020165;28;20045;-69
2023/09/05 11:40:41;;;;;;;3.20;3.10;;;;;;;24.48;52.07;97121.56;5017438;28;20042;-65